Terminal Aerodrome Forecast
Issued by NWS Rapid City, SD

Home | Current Version | Previous Version | Text Only | Print | Product List | Glossary Off
Versions: 1 2 3 4 5 6 7 8 9 10 11 12 13 14 15 16 17

000
FTUS43 KUNR 220520
TAFRAP
TAF
KRAP 220520Z 2206/2306 14005KT P6SM SKC
     FM221600 11011KT P6SM SCT250
     FM230300 06009KT P6SM SKC=

USA.gov is the U.S. government's official web portal to all federal, state and local government web resources and services.